createdAt,value
2017-07-24T00:01:33.458Z,28.50
2017-07-24T00:04:03.643Z,28.70
2017-07-24T00:06:33.655Z,28.60
2017-07-24T00:09:03.670Z,28.40
2017-07-24T00:11:33.711Z,28.30
2017-07-24T00:14:08.623Z,28.30
2017-07-24T00:16:39.520Z,28.20
2017-07-24T00:19:14.817Z,28.20
2017-07-24T00:21:53.631Z,28.40
2017-07-24T00:24:24.552Z,28.70
2017-07-24T00:26:54.875Z,28.70
2017-07-24T00:29:24.897Z,28.80
2017-07-24T00:31:55.320Z,29.10
2017-07-24T00:34:26.259Z,29.50
2017-07-24T00:36:56.283Z,29.80
2017-07-24T00:39:26.386Z,30.20
2017-07-24T00:41:56.531Z,30.40
2017-07-24T00:44:26.624Z,30.70
2017-07-24T00:46:56.742Z,30.90
2017-07-24T00:49:26.859Z,31.00
2017-07-24T00:51:57.080Z,31.10
2017-07-24T00:54:27.197Z,31.10
2017-07-24T00:56:57.316Z,30.90
2017-07-24T00:59:27.434Z,30.80
2017-07-24T01:01:57.553Z,30.60
2017-07-24T01:04:27.671Z,30.50
2017-07-24T01:06:57.789Z,30.40
2017-07-24T01:09:27.909Z,30.30
2017-07-24T01:11:58.029Z,30.50
2017-07-24T01:14:28.146Z,30.80
2017-07-24T01:16:58.368Z,31.10
2017-07-24T01:19:31.782Z,31.40
2017-07-24T01:22:07.962Z,31.60
2017-07-24T01:24:40.191Z,31.80
2017-07-24T01:27:11.714Z,31.80
2017-07-24T01:29:42.677Z,31.70
2017-07-24T01:32:12.896Z,31.70
2017-07-24T01:34:43.017Z,31.70
2017-07-24T01:37:13.236Z,31.60
2017-07-24T01:39:43.356Z,31.60
2017-07-24T01:42:49.111Z,31.60
2017-07-24T01:45:19.228Z,31.50
2017-07-24T01:47:49.450Z,31.50
2017-07-24T01:50:19.570Z,31.50
2017-07-24T01:52:49.785Z,31.50
2017-07-24T01:55:19.910Z,31.50
2017-07-24T01:57:54.936Z,31.50
2017-07-24T02:00:25.259Z,31.40
2017-07-24T02:02:55.199Z,31.40
2017-07-24T02:05:25.301Z,31.60
2017-07-24T02:07:55.224Z,31.60
2017-07-24T02:10:25.240Z,31.60
2017-07-24T02:12:55.341Z,31.60
2017-07-24T02:15:25.353Z,31.60
2017-07-24T02:17:55.574Z,31.60
2017-07-24T02:20:25.692Z,31.80
2017-07-24T02:22:55.913Z,32.00
2017-07-24T02:25:28.407Z,32.10
2017-07-24T02:27:59.166Z,32.10
2017-07-24T02:30:33.048Z,32.30
2017-07-24T02:33:04.801Z,32.60
2017-07-24T02:35:37.495Z,32.60
2017-07-24T02:38:08.410Z,32.60
2017-07-24T02:40:41.655Z,32.60
2017-07-24T02:43:12.454Z,32.70
2017-07-24T02:45:42.544Z,32.80
2017-07-24T02:48:12.763Z,32.90
2017-07-24T02:50:42.882Z,33.00
2017-07-24T02:53:13.001Z,33.10
2017-07-24T02:55:43.118Z,33.30
2017-07-24T02:58:13.337Z,33.20
2017-07-24T03:00:46.843Z,33.30
2017-07-24T03:03:44.301Z,33.40
2017-07-24T03:06:15.170Z,33.30
2017-07-24T03:08:46.211Z,33.40
2017-07-24T03:11:19.793Z,33.50
2017-07-24T03:13:52.238Z,33.50
2017-07-24T03:16:22.785Z,33.20
2017-07-24T03:18:53.559Z,32.80
2017-07-24T03:21:23.727Z,32.70
2017-07-24T03:23:54.048Z,32.90
2017-07-24T03:26:25.999Z,33.20
2017-07-24T03:28:59.055Z,33.60
2017-07-24T03:31:39.729Z,33.70
2017-07-24T03:34:11.312Z,34.30
2017-07-24T03:36:41.434Z,34.20
2017-07-24T03:39:11.549Z,34.40
2017-07-24T03:41:41.467Z,34.60
2017-07-24T03:44:11.471Z,34.80
2017-07-24T03:46:41.393Z,34.90
2017-07-24T03:49:11.614Z,35.10
2017-07-24T03:51:41.732Z,35.30
2017-07-24T03:54:11.953Z,35.30
2017-07-24T03:56:41.967Z,35.20
2017-07-24T03:59:12.088Z,34.60
2017-07-24T04:01:42.100Z,34.20
2017-07-24T04:04:12.219Z,34.10
2017-07-24T04:06:42.138Z,34.30
2017-07-24T04:09:12.358Z,34.30
2017-07-24T04:11:42.370Z,34.40
2017-07-24T04:14:14.001Z,34.60
2017-07-24T04:16:44.142Z,34.90
2017-07-24T04:19:15.044Z,35.10
2017-07-24T04:21:45.401Z,34.90
2017-07-24T04:24:16.960Z,34.90
2017-07-24T04:26:49.357Z,34.80
2017-07-24T04:29:19.342Z,34.90
2017-07-24T04:31:49.460Z,34.90
2017-07-24T04:34:19.480Z,34.90
2017-07-24T04:36:49.702Z,34.90
2017-07-24T04:39:19.715Z,34.70
2017-07-24T04:41:49.629Z,34.60
2017-07-24T04:44:19.752Z,34.40
2017-07-24T04:46:49.864Z,34.30
2017-07-24T04:49:19.879Z,34.80
2017-07-24T04:51:49.793Z,34.90
2017-07-24T04:54:19.910Z,34.90
2017-07-24T04:56:49.927Z,35.20
2017-07-24T04:59:20.148Z,35.50
2017-07-24T05:01:50.162Z,35.90
2017-07-24T05:04:20.386Z,35.80
2017-07-24T05:06:50.501Z,35.40
2017-07-24T05:09:20.721Z,35.50
2017-07-24T05:11:50.841Z,35.70
2017-07-24T05:14:20.958Z,35.50
2017-07-24T05:16:50.975Z,35.20
2017-07-24T05:19:21.098Z,35.20
2017-07-24T05:21:51.212Z,35.20
2017-07-24T05:24:21.438Z,35.10
2017-07-24T05:26:51.420Z,35.00
2017-07-24T05:29:22.385Z,34.90
2017-07-24T05:31:53.946Z,34.90
2017-07-24T05:34:25.199Z,34.90
2017-07-24T05:36:58.545Z,34.90
2017-07-24T05:39:31.412Z,34.90
2017-07-24T05:42:05.785Z,35.00
2017-07-24T05:44:36.100Z,35.50
2017-07-24T05:47:06.320Z,35.90
2017-07-24T05:49:36.541Z,36.00
2017-07-24T05:52:06.441Z,36.00
2017-07-24T05:54:36.479Z,36.00
2017-07-24T05:57:06.589Z,36.00
2017-07-24T05:59:36.710Z,36.20
2017-07-24T06:02:06.724Z,36.40
2017-07-24T06:04:36.944Z,36.80
2017-07-24T06:07:06.910Z,36.60
2017-07-24T06:09:37.079Z,36.80
2017-07-24T06:12:07.092Z,37.00
2017-07-24T06:14:37.213Z,37.10
2017-07-24T06:17:12.249Z,36.70
2017-07-24T06:19:42.362Z,36.40
2017-07-24T06:22:13.872Z,36.30
2017-07-24T06:24:45.695Z,36.20
2017-07-24T06:27:18.231Z,36.00
2017-07-24T06:29:59.985Z,35.70
2017-07-24T06:32:30.160Z,35.70
2017-07-24T06:35:00.955Z,35.40
2017-07-24T06:37:31.111Z,35.30
2017-07-24T06:40:02.447Z,35.30
2017-07-24T06:42:34.110Z,35.20
2017-07-24T06:45:04.232Z,35.40
2017-07-24T06:47:34.352Z,35.50
2017-07-24T06:50:04.471Z,35.40
2017-07-24T06:52:34.585Z,35.40
2017-07-24T06:55:04.909Z,35.50
2017-07-24T06:57:35.131Z,35.50
2017-07-24T07:00:05.249Z,35.60
2017-07-24T07:02:35.914Z,35.90
2017-07-24T07:05:06.855Z,36.10
2017-07-24T07:07:38.060Z,35.90
2017-07-24T07:10:09.086Z,35.70
2017-07-24T07:12:39.935Z,34.90
2017-07-24T07:15:10.055Z,34.90
2017-07-24T07:17:40.273Z,34.80
2017-07-24T07:20:10.392Z,34.90
2017-07-24T07:22:40.615Z,34.90
2017-07-24T07:25:15.694Z,34.90
2017-07-24T07:27:46.335Z,34.80
2017-07-24T07:30:17.437Z,34.70
2017-07-24T07:32:49.590Z,34.40
2017-07-24T07:35:19.704Z,34.30
2017-07-24T07:37:49.719Z,34.30
2017-07-24T07:40:20.548Z,34.30
2017-07-24T07:42:50.673Z,34.30
2017-07-24T07:45:22.394Z,34.00
2017-07-24T07:47:58.535Z,34.20
2017-07-24T07:50:30.234Z,34.70
2017-07-24T07:53:03.866Z,34.70
2017-07-24T07:55:34.943Z,34.90
2017-07-24T07:58:06.484Z,35.00
2017-07-24T08:00:44.227Z,35.30
2017-07-24T08:03:16.622Z,35.40
2017-07-24T08:05:47.551Z,35.20
2017-07-24T08:08:18.240Z,35.20
2017-07-24T08:10:50.041Z,34.90
2017-07-24T08:13:25.894Z,34.90
2017-07-24T08:15:56.106Z,35.00
2017-07-24T08:18:26.335Z,35.20
2017-07-24T08:20:56.448Z,35.30
2017-07-24T08:23:26.666Z,35.40
2017-07-24T08:25:56.814Z,35.40
2017-07-24T08:28:27.209Z,35.50
2017-07-24T08:30:57.330Z,35.60
2017-07-24T08:33:27.551Z,35.20
2017-07-24T08:35:57.666Z,35.10
2017-07-24T08:38:27.890Z,35.10
2017-07-24T08:40:57.902Z,35.10
2017-07-24T08:43:28.022Z,34.90
2017-07-24T08:45:58.144Z,34.60
2017-07-24T08:48:29.377Z,34.60
2017-07-24T08:51:00.292Z,34.80
2017-07-24T08:53:31.849Z,35.10
2017-07-24T08:56:03.866Z,35.10
2017-07-24T08:58:34.594Z,35.10
2017-07-24T09:01:05.885Z,35.20
2017-07-24T09:03:38.446Z,35.10
2017-07-24T09:06:09.348Z,35.10
2017-07-24T09:08:39.444Z,35.20
2017-07-24T09:11:10.398Z,35.30
2017-07-24T09:13:41.732Z,35.30
2017-07-24T09:16:12.880Z,35.20
2017-07-24T09:18:43.670Z,35.10
2017-07-24T09:21:14.575Z,34.90
2017-07-24T09:23:47.651Z,34.70
2017-07-24T09:26:18.874Z,34.60
2017-07-24T09:28:51.136Z,34.60
2017-07-24T09:31:21.261Z,34.70
2017-07-24T09:33:51.377Z,34.60
2017-07-24T09:36:21.498Z,34.60
2017-07-24T09:38:51.619Z,34.80
2017-07-24T09:41:21.737Z,34.90
2017-07-24T09:43:51.853Z,34.80
2017-07-24T09:46:21.970Z,34.60
2017-07-24T09:48:52.191Z,34.40
2017-07-24T09:51:22.206Z,34.40
2017-07-24T09:53:52.325Z,34.40
2017-07-24T09:56:22.442Z,34.20
2017-07-24T09:58:52.669Z,34.10
2017-07-24T10:01:22.783Z,34.10
2017-07-24T10:03:53.004Z,34.10
2017-07-24T10:06:23.121Z,34.00
2017-07-24T10:09:08.803Z,33.80
2017-07-24T10:11:38.758Z,33.60
2017-07-24T10:14:08.943Z,33.50
2017-07-24T10:16:39.061Z,33.40
2017-07-24T10:19:09.285Z,33.40
2017-07-24T10:21:39.401Z,33.30
2017-07-24T10:24:09.515Z,33.30
2017-07-24T10:26:39.838Z,33.50
2017-07-24T10:29:09.960Z,33.70
2017-07-24T10:31:40.075Z,33.80
2017-07-24T10:34:10.295Z,33.90
2017-07-24T10:36:40.416Z,34.00
2017-07-24T10:39:34.802Z,34.10
2017-07-24T10:42:04.917Z,34.20
2017-07-24T10:44:35.037Z,34.20
2017-07-24T10:47:05.053Z,34.20
2017-07-24T10:49:36.959Z,34.30
2017-07-24T10:52:10.945Z,34.30
2017-07-24T10:55:15.128Z,34.20
2017-07-24T10:57:46.957Z,34.20
2017-07-24T11:00:17.898Z,34.10
2017-07-24T11:02:48.833Z,34.20
2017-07-24T11:05:23.006Z,34.20
2017-07-24T11:07:54.558Z,34.20
2017-07-24T11:10:24.654Z,34.30
2017-07-24T11:12:54.791Z,34.30
2017-07-24T11:15:24.892Z,34.10
2017-07-24T11:17:56.428Z,33.90
2017-07-24T11:20:27.184Z,33.80
2017-07-24T11:22:57.397Z,33.80
2017-07-24T11:25:27.526Z,33.50
2017-07-24T11:28:28.286Z,33.50
2017-07-24T11:30:58.369Z,33.50
2017-07-24T11:33:28.591Z,33.50
2017-07-24T11:35:58.691Z,33.30
2017-07-24T11:38:29.648Z,32.90
2017-07-24T11:40:59.766Z,32.80
2017-07-24T11:43:29.882Z,32.60
2017-07-24T11:45:59.913Z,32.40
2017-07-24T11:48:30.016Z,32.30
2017-07-24T11:51:00.135Z,32.10
2017-07-24T11:53:30.254Z,31.90
2017-07-24T11:56:00.473Z,31.80
2017-07-24T11:58:30.605Z,31.70
2017-07-24T12:01:00.710Z,31.50
2017-07-24T12:03:30.828Z,31.50
2017-07-24T12:06:01.055Z,31.40
2017-07-24T12:08:31.167Z,31.30
2017-07-24T12:11:31.398Z,31.10
2017-07-24T12:14:01.510Z,31.10
2017-07-24T12:16:31.536Z,31.00
2017-07-24T12:19:01.996Z,31.00
2017-07-24T12:21:32.990Z,30.70
2017-07-24T12:24:03.428Z,30.70
2017-07-24T12:26:33.841Z,30.70
2017-07-24T12:29:04.359Z,30.60
2017-07-24T12:31:34.406Z,30.60
2017-07-24T12:34:05.135Z,30.50
2017-07-24T12:36:35.142Z,30.50
2017-07-24T12:39:05.148Z,30.60
2017-07-24T12:41:37.052Z,30.50
2017-07-24T12:44:07.127Z,30.40
2017-07-24T12:46:37.450Z,30.40
2017-07-24T12:49:07.572Z,30.40
2017-07-24T12:51:37.685Z,30.40
2017-07-24T12:54:08.027Z,30.50
2017-07-24T12:57:08.541Z,30.50
2017-07-24T12:59:38.657Z,30.50
2017-07-24T13:02:09.187Z,30.60
2017-07-24T13:04:39.511Z,30.60
2017-07-24T13:07:09.732Z,30.50
2017-07-24T13:09:39.968Z,30.50
2017-07-24T13:12:10.547Z,30.40
2017-07-24T13:14:51.936Z,30.40
2017-07-24T13:17:24.736Z,30.40
2017-07-24T13:19:55.624Z,30.40
2017-07-24T13:22:26.524Z,30.40
2017-07-24T13:24:57.045Z,30.40
2017-07-24T13:27:27.062Z,30.40
2017-07-24T13:29:57.691Z,30.30
2017-07-24T13:32:27.713Z,30.30
2017-07-24T13:34:57.826Z,30.20
2017-07-24T13:40:03.584Z,30.10
2017-07-24T13:42:36.032Z,30.10
2017-07-24T13:45:10.837Z,30.00
2017-07-24T13:47:42.296Z,30.10
2017-07-24T13:50:12.359Z,30.00
2017-07-24T13:52:42.478Z,30.00
2017-07-24T13:55:12.610Z,29.90
2017-07-24T13:57:42.714Z,29.90
2017-07-24T14:00:12.834Z,29.90
2017-07-24T14:02:42.950Z,29.90
2017-07-24T14:05:13.069Z,29.90
2017-07-24T14:07:43.187Z,30.00
2017-07-24T14:10:16.758Z,30.10
2017-07-24T14:12:48.661Z,30.10
2017-07-24T14:15:19.914Z,30.10
2017-07-24T14:17:50.469Z,30.10
2017-07-24T14:20:20.544Z,30.10
2017-07-24T14:22:52.612Z,30.00
2017-07-24T14:25:23.757Z,30.00
2017-07-24T14:27:55.062Z,30.00
2017-07-24T14:30:28.506Z,30.00
2017-07-24T14:33:01.026Z,30.00
2017-07-24T14:35:32.805Z,29.90
2017-07-24T14:38:29.571Z,29.90
2017-07-24T14:41:00.376Z,29.90
2017-07-24T14:43:33.651Z,29.80
2017-07-24T14:46:06.856Z,29.80
2017-07-24T14:48:38.244Z,29.90
2017-07-24T14:51:10.108Z,29.80
2017-07-24T14:53:40.205Z,29.90
2017-07-24T14:56:10.232Z,29.90
2017-07-24T14:58:40.338Z,29.90
2017-07-24T15:01:10.455Z,29.80
2017-07-24T15:03:40.469Z,29.80
2017-07-24T15:06:10.458Z,29.70
2017-07-24T15:08:41.223Z,29.80
2017-07-24T15:11:12.710Z,29.80
2017-07-24T15:13:44.049Z,29.70
2017-07-24T15:16:14.995Z,29.80
2017-07-24T15:18:58.318Z,29.70
2017-07-24T15:21:28.399Z,29.70
2017-07-24T15:23:58.532Z,29.70
2017-07-24T15:26:28.636Z,29.60
2017-07-24T15:28:58.754Z,29.60
2017-07-24T15:31:29.229Z,29.60
2017-07-24T15:33:59.403Z,29.70
2017-07-24T15:36:29.542Z,29.70
2017-07-24T15:38:59.683Z,29.60
2017-07-24T15:41:29.831Z,29.60
2017-07-24T15:44:00.713Z,29.50
2017-07-24T15:46:30.821Z,29.40
2017-07-24T15:49:00.807Z,29.30
2017-07-24T15:51:33.698Z,29.30
2017-07-24T15:54:04.786Z,29.30
2017-07-24T15:56:35.346Z,29.30
2017-07-24T15:59:07.466Z,29.30
2017-07-24T16:01:37.587Z,29.20
2017-07-24T16:04:07.681Z,29.30
2017-07-24T16:06:37.705Z,29.30
2017-07-24T16:09:07.712Z,29.20
2017-07-24T16:11:37.845Z,29.30
2017-07-24T16:14:09.873Z,29.30
2017-07-24T16:16:43.197Z,29.30
2017-07-24T16:19:16.183Z,29.30
2017-07-24T16:21:46.972Z,29.40
2017-07-24T16:24:17.130Z,29.30
2017-07-24T16:26:47.810Z,29.50
2017-07-24T16:29:18.741Z,29.80
2017-07-24T16:31:48.909Z,30.00
2017-07-24T16:34:19.134Z,30.30
2017-07-24T16:36:49.251Z,30.40
2017-07-24T16:39:21.386Z,30.60
2017-07-24T16:41:52.443Z,30.70
2017-07-24T16:44:23.526Z,30.80
2017-07-24T16:46:54.963Z,30.80
2017-07-24T16:49:25.169Z,30.90
2017-07-24T16:51:55.283Z,31.00
2017-07-24T16:55:06.438Z,31.00
2017-07-24T16:57:38.947Z,31.00
2017-07-24T17:00:12.675Z,31.00
2017-07-24T17:02:45.135Z,30.90
2017-07-24T17:05:16.309Z,30.80
2017-07-24T17:07:46.952Z,30.80
2017-07-24T17:10:22.079Z,30.70
2017-07-24T17:12:52.584Z,30.70
2017-07-24T17:15:23.488Z,30.60
2017-07-24T17:17:53.711Z,30.60
2017-07-24T17:20:23.730Z,30.60
2017-07-24T17:22:53.949Z,30.70
2017-07-24T17:25:24.743Z,30.70
2017-07-24T17:27:55.357Z,30.70
2017-07-24T17:30:25.433Z,30.70
2017-07-24T17:32:55.648Z,30.70
2017-07-24T17:35:25.662Z,30.80
2017-07-24T17:37:55.780Z,30.70
2017-07-24T17:40:25.797Z,30.70
2017-07-24T17:42:55.813Z,30.70
2017-07-24T17:45:25.931Z,30.60
2017-07-24T17:47:55.947Z,30.30
2017-07-24T17:50:26.066Z,29.90
2017-07-24T17:52:56.388Z,29.80
2017-07-24T17:55:26.507Z,29.70
2017-07-24T17:57:56.827Z,29.60
2017-07-24T18:00:26.948Z,29.50
2017-07-24T18:02:58.304Z,29.70
2017-07-24T18:05:28.412Z,29.90
2017-07-24T18:08:01.483Z,30.00
2017-07-24T18:13:53.961Z,30.30
2017-07-24T18:16:28.203Z,30.30
2017-07-24T18:19:30.601Z,30.00
2017-07-24T18:22:01.253Z,29.80
2017-07-24T18:25:15.640Z,29.70
2017-07-24T18:27:45.858Z,29.70
2017-07-24T18:30:18.922Z,29.60
2017-07-24T18:32:50.563Z,29.70
2017-07-24T18:35:23.394Z,29.70
2017-07-24T18:37:54.068Z,29.80
2017-07-24T18:40:25.155Z,29.90
2017-07-24T18:42:55.168Z,29.90
2017-07-24T18:45:25.291Z,29.60
2017-07-24T18:47:59.246Z,29.20
2017-07-24T18:50:32.040Z,29.00
2017-07-24T18:53:03.408Z,28.90
2017-07-24T18:56:09.792Z,28.70
2017-07-24T18:58:39.807Z,28.70
2017-07-24T19:01:10.032Z,28.90
2017-07-24T19:03:39.874Z,28.80
2017-07-24T19:06:09.957Z,28.70
2017-07-24T19:08:39.973Z,28.80
2017-07-24T19:11:39.071Z,28.90
2017-07-24T19:14:09.188Z,28.80
2017-07-24T19:17:11.813Z,28.60
2017-07-24T19:19:43.575Z,28.70
2017-07-24T19:22:19.583Z,29.10
2017-07-24T19:24:54.380Z,29.30
2017-07-24T19:27:24.633Z,29.60
2017-07-24T19:29:54.751Z,29.50
2017-07-24T19:32:55.282Z,29.20
2017-07-24T19:35:25.297Z,29.10
2017-07-24T19:37:55.516Z,29.00
2017-07-24T19:40:25.536Z,29.00
2017-07-24T19:43:05.787Z,29.00
2017-07-24T19:45:36.009Z,29.10
2017-07-24T19:48:06.947Z,29.10
2017-07-24T19:51:07.279Z,29.10
2017-07-24T19:53:37.392Z,29.10
2017-07-24T19:56:08.335Z,29.30
2017-07-24T19:58:39.020Z,29.50
2017-07-24T20:01:13.745Z,29.50
2017-07-24T20:03:45.284Z,29.20
2017-07-24T20:06:45.564Z,28.90
2017-07-24T20:09:16.304Z,28.70
2017-07-24T20:11:56.562Z,28.50
2017-07-24T20:14:26.575Z,28.40
2017-07-24T20:16:56.792Z,28.40
2017-07-24T20:19:26.809Z,28.30
2017-07-24T20:22:21.190Z,28.20
2017-07-24T20:24:51.100Z,28.20
2017-07-24T20:27:21.216Z,28.30
2017-07-24T20:29:56.639Z,28.30
2017-07-24T20:32:29.358Z,28.40
2017-07-24T20:35:03.489Z,28.40
2017-07-24T20:37:34.524Z,28.70
2017-07-24T20:40:04.505Z,29.00
2017-07-24T20:42:34.630Z,29.10
2017-07-24T20:45:04.747Z,28.80
2017-07-24T20:47:34.866Z,28.60
2017-07-24T20:50:04.986Z,28.60
2017-07-24T20:52:59.370Z,28.50
2017-07-24T20:55:30.340Z,28.30
2017-07-24T20:58:14.767Z,28.40
2017-07-24T21:00:45.243Z,28.30
2017-07-24T21:03:15.307Z,28.20
2017-07-24T21:05:45.422Z,28.20
2017-07-24T21:15:27.232Z,28.40
2017-07-24T21:17:59.868Z,28.60
2017-07-24T21:20:31.531Z,28.60
2017-07-24T21:23:02.574Z,28.60
2017-07-24T21:25:34.180Z,28.70
2017-07-24T21:28:08.866Z,28.90
2017-07-24T21:30:51.059Z,29.00
2017-07-24T21:33:21.438Z,29.10
2017-07-24T21:35:52.279Z,28.80
2017-07-24T21:38:25.856Z,28.60
2017-07-24T21:41:26.005Z,28.50
2017-07-24T21:43:56.110Z,28.50
2017-07-24T21:46:26.226Z,28.40
2017-07-24T21:48:56.448Z,28.40
2017-07-24T21:51:26.463Z,28.30
2017-07-24T21:53:56.685Z,28.30
2017-07-24T21:56:26.601Z,28.20
2017-07-24T21:58:56.819Z,28.30
2017-07-24T22:01:26.836Z,28.10
2017-07-24T22:03:57.893Z,28.00
2017-07-24T22:06:27.997Z,28.10
2017-07-24T22:09:17.471Z,28.00
2017-07-24T22:11:47.584Z,27.90
2017-07-24T22:14:17.702Z,27.90
2017-07-24T22:16:47.719Z,28.00
2017-07-24T22:19:17.729Z,27.90
2017-07-24T22:21:47.749Z,27.90
2017-07-24T22:24:17.969Z,28.00
2017-07-24T22:26:50.783Z,28.00
2017-07-24T22:29:20.869Z,27.90
2017-07-24T22:31:50.987Z,27.80
2017-07-24T22:34:21.103Z,28.00
2017-07-24T22:36:51.121Z,27.90
2017-07-24T22:39:21.445Z,27.70
2017-07-24T22:41:51.357Z,27.80
2017-07-24T22:44:31.511Z,27.90
2017-07-24T22:47:01.754Z,27.90
2017-07-24T22:49:31.957Z,27.90
2017-07-24T22:52:01.968Z,28.10
2017-07-24T22:54:32.087Z,28.10
2017-07-24T22:57:02.412Z,28.10
2017-07-24T22:59:32.530Z,28.20
2017-07-24T23:02:02.651Z,28.40
2017-07-24T23:04:32.663Z,28.30
2017-07-24T23:07:02.786Z,28.10
2017-07-24T23:09:33.102Z,28.10
2017-07-24T23:12:03.220Z,28.00
2017-07-24T23:14:33.338Z,27.80
2017-07-24T23:17:03.250Z,27.70
2017-07-24T23:19:33.269Z,27.80
2017-07-24T23:22:03.183Z,27.80
2017-07-24T23:24:33.307Z,27.80
2017-07-24T23:27:03.418Z,27.90
2017-07-24T23:29:34.667Z,28.00
2017-07-24T23:32:04.782Z,27.90
2017-07-24T23:34:45.040Z,27.90
2017-07-24T23:37:15.158Z,28.10
2017-07-24T23:40:10.568Z,28.10
2017-07-24T23:42:40.587Z,27.90
2017-07-24T23:45:10.700Z,27.90
2017-07-24T23:47:40.715Z,28.10
2017-07-24T23:50:10.832Z,28.20
2017-07-24T23:52:40.859Z,28.20
2017-07-24T23:55:11.991Z,28.50
2017-07-24T23:57:42.110Z,28.50
